createdAt,value
2018-03-23T00:00:04.935Z,36.70
2018-03-23T00:01:04.851Z,31.80
2018-03-23T00:02:04.815Z,30.80
2018-03-23T00:03:04.775Z,33.40
2018-03-23T00:04:04.831Z,31.30
2018-03-23T00:05:04.731Z,27.80
2018-03-23T00:06:04.915Z,31.20
2018-03-23T00:07:05.447Z,30.60
2018-03-23T00:08:04.472Z,30.40
2018-03-23T00:09:04.511Z,30.60
2018-03-23T00:10:04.389Z,31.00
2018-03-23T00:11:04.410Z,34.80
2018-03-23T00:12:04.270Z,29.60
2018-03-23T00:13:04.395Z,28.60
2018-03-23T00:14:04.370Z,27.60
2018-03-23T00:15:04.296Z,27.60
2018-03-23T00:16:04.228Z,29.30
2018-03-23T00:17:04.208Z,28.20
2018-03-23T00:18:04.093Z,29.30
2018-03-23T00:19:04.103Z,30.30
2018-03-23T00:20:04.136Z,32.80
2018-03-23T00:21:03.923Z,28.90
2018-03-23T00:22:04.492Z,32.10
2018-03-23T00:23:03.969Z,31.80
2018-03-23T00:24:03.913Z,33.30
2018-03-23T00:25:03.783Z,30.60
2018-03-23T00:26:03.976Z,30.90
2018-03-23T00:27:03.742Z,32.70
2018-03-23T00:28:03.589Z,33.90
2018-03-23T00:29:03.576Z,35.60
2018-03-23T00:30:03.683Z,39.70
2018-03-23T00:31:03.510Z,37.70
2018-03-23T00:32:03.496Z,35.80
2018-03-23T00:33:03.397Z,31.70
2018-03-23T00:34:03.583Z,35.10
2018-03-23T00:35:03.317Z,35.90
2018-03-23T00:36:03.323Z,33.80
2018-03-23T00:37:03.219Z,33.00
2018-03-23T00:38:03.160Z,32.30
2018-03-23T00:39:03.255Z,27.30
2018-03-23T00:40:03.094Z,29.20
2018-03-23T00:41:03.026Z,31.30
2018-03-23T00:42:03.033Z,31.60
2018-03-23T00:43:02.954Z,33.50
2018-03-23T00:44:02.944Z,32.90
2018-03-23T00:45:02.926Z,33.90
2018-03-23T00:46:02.928Z,34.20
2018-03-23T00:47:02.943Z,37.70
2018-03-23T00:48:02.839Z,28.40
2018-03-23T00:49:02.946Z,32.00
2018-03-23T00:50:02.883Z,28.30
2018-03-23T00:51:02.606Z,29.80
2018-03-23T00:52:02.576Z,32.30
2018-03-23T00:53:02.547Z,32.50
2018-03-23T00:54:03.433Z,31.80
2018-03-23T00:55:02.509Z,30.00
2018-03-23T00:56:02.506Z,37.10
2018-03-23T00:57:02.320Z,36.00
2018-03-23T00:58:02.391Z,36.30
2018-03-23T00:59:02.254Z,32.60
2018-03-23T01:00:02.223Z,30.50
2018-03-23T01:01:02.147Z,31.90
2018-03-23T01:02:02.123Z,34.00
2018-03-23T01:03:02.067Z,40.10
2018-03-23T01:04:02.034Z,42.30
2018-03-23T01:05:01.977Z,34.80
2018-03-23T01:06:01.957Z,36.00
2018-03-23T01:07:02.015Z,33.30
2018-03-23T01:08:01.904Z,36.80
2018-03-23T01:09:01.867Z,34.20
2018-03-23T01:10:01.750Z,35.70
2018-03-23T01:11:01.715Z,36.00
2018-03-23T01:12:02.428Z,36.30
2018-03-23T01:13:01.623Z,36.10
2018-03-23T01:14:01.703Z,35.20
2018-03-23T01:15:01.539Z,36.50
2018-03-23T01:16:02.634Z,35.30
2018-03-23T01:17:01.461Z,37.20
2018-03-23T01:18:01.467Z,36.90
2018-03-23T01:19:01.616Z,35.20
2018-03-23T01:20:03.048Z,36.50
2018-03-23T01:21:01.319Z,32.70
2018-03-23T01:22:06.088Z,33.90
2018-03-23T01:23:01.257Z,28.90
2018-03-23T01:24:01.255Z,31.90
2018-03-23T01:25:01.098Z,33.60
2018-03-23T01:26:01.083Z,32.00
2018-03-23T01:27:01.201Z,34.90
2018-03-23T01:28:00.985Z,36.10
2018-03-23T01:29:01.050Z,35.90
2018-03-23T01:30:00.929Z,29.20
2018-03-23T01:31:00.971Z,27.10
2018-03-23T01:32:00.845Z,32.40
2018-03-23T01:33:00.885Z,28.90
2018-03-23T01:34:00.729Z,31.50
2018-03-23T01:35:00.762Z,32.60
2018-03-23T01:36:00.632Z,31.40
2018-03-23T01:37:00.748Z,38.30
2018-03-23T01:38:00.563Z,38.30
2018-03-23T01:39:00.624Z,39.80
2018-03-23T01:40:00.484Z,46.40
2018-03-23T01:41:00.451Z,40.90
2018-03-23T01:42:00.437Z,36.30
2018-03-23T01:43:00.306Z,43.70
2018-03-23T01:44:00.292Z,42.60
2018-03-23T01:45:00.213Z,44.80
2018-03-23T01:46:00.236Z,44.20
2018-03-23T01:47:00.152Z,39.20
2018-03-23T01:48:00.193Z,40.00
2018-03-23T01:49:00.053Z,40.20
2018-03-23T01:50:00.091Z,42.70
2018-03-23T01:51:00.133Z,38.90
2018-03-23T01:51:59.964Z,37.90
2018-03-23T01:52:59.936Z,34.20
2018-03-23T01:53:59.831Z,32.70
2018-03-23T01:54:59.813Z,28.60
2018-03-23T01:55:59.833Z,32.90
2018-03-23T01:56:59.815Z,33.40
2018-03-23T01:57:59.803Z,36.40
2018-03-23T01:58:59.715Z,36.60
2018-03-23T01:59:59.598Z,36.60
2018-03-23T02:00:59.582Z,36.10
2018-03-23T02:01:59.475Z,34.70
2018-03-23T02:02:59.480Z,34.40
2018-03-23T02:03:59.442Z,33.20
2018-03-23T02:04:59.426Z,34.10
2018-03-23T02:05:59.356Z,33.70
2018-03-23T02:06:59.282Z,33.90
2018-03-23T02:07:59.254Z,36.00
2018-03-23T02:08:59.258Z,37.00
2018-03-23T02:09:59.226Z,37.20
2018-03-23T02:10:59.135Z,32.20
2018-03-23T02:11:59.049Z,34.80
2018-03-23T02:12:59.059Z,31.80
2018-03-23T02:13:59.000Z,31.80
2018-03-23T02:14:58.932Z,37.50
2018-03-23T02:15:58.965Z,36.30
2018-03-23T02:16:59.054Z,35.60
2018-03-23T02:17:58.784Z,35.90
2018-03-23T02:19:01.053Z,35.40
2018-03-23T02:19:58.785Z,39.30
2018-03-23T02:20:58.693Z,36.90
2018-03-23T02:21:58.616Z,41.20
2018-03-23T02:22:58.565Z,38.30
2018-03-23T02:23:58.583Z,36.90
2018-03-23T02:24:58.517Z,30.30
2018-03-23T02:25:58.575Z,29.80
2018-03-23T02:26:58.435Z,34.10
2018-03-23T02:27:58.368Z,34.60
2018-03-23T02:28:58.485Z,33.70
2018-03-23T02:29:58.334Z,33.50
2018-03-23T02:30:58.317Z,33.60
2018-03-23T02:31:58.277Z,33.50
2018-03-23T02:32:58.319Z,35.20
2018-03-23T02:33:58.178Z,32.80
2018-03-23T02:34:58.067Z,40.20
2018-03-23T02:35:58.074Z,38.70
2018-03-23T02:36:58.038Z,36.00
2018-03-23T02:37:58.031Z,37.10
2018-03-23T02:38:57.893Z,36.00
2018-03-23T02:39:57.921Z,35.60
2018-03-23T02:40:57.831Z,31.70
2018-03-23T02:41:57.778Z,33.50
2018-03-23T02:42:57.758Z,32.00
2018-03-23T02:43:57.727Z,34.20
2018-03-23T02:44:57.727Z,34.50
2018-03-23T02:45:57.646Z,36.80
2018-03-23T02:46:57.691Z,36.80
2018-03-23T02:47:57.539Z,38.80
2018-03-23T02:48:57.440Z,37.10
2018-03-23T02:49:57.410Z,38.90
2018-03-23T02:50:57.370Z,38.70
2018-03-23T02:51:57.361Z,41.30
2018-03-23T02:52:57.289Z,41.40
2018-03-23T02:53:57.247Z,40.30
2018-03-23T02:54:57.242Z,39.90
2018-03-23T02:55:57.160Z,35.90
2018-03-23T02:56:57.088Z,36.60
2018-03-23T02:57:57.149Z,41.20
2018-03-23T02:58:57.006Z,37.40
2018-03-23T02:59:57.088Z,34.20
2018-03-23T03:00:56.915Z,37.30
2018-03-23T03:01:56.934Z,33.10
2018-03-23T03:02:56.825Z,35.00
2018-03-23T03:03:56.836Z,35.10
2018-03-23T03:04:58.831Z,36.30
2018-03-23T03:05:56.738Z,40.40
2018-03-23T03:06:56.674Z,35.40
2018-03-23T03:07:56.666Z,31.20
2018-03-23T03:08:56.576Z,30.70
2018-03-23T03:09:56.592Z,31.60
2018-03-23T03:10:56.483Z,33.10
2018-03-23T03:11:56.492Z,34.80
2018-03-23T03:12:56.419Z,35.50
2018-03-23T03:13:56.350Z,38.00
2018-03-23T03:14:56.357Z,40.40
2018-03-23T03:15:56.293Z,37.70
2018-03-23T03:16:56.265Z,38.50
2018-03-23T03:17:56.184Z,38.70
2018-03-23T03:18:56.208Z,39.00
2018-03-23T03:19:56.136Z,42.30
2018-03-23T03:20:56.035Z,39.70
2018-03-23T03:21:56.012Z,41.90
2018-03-23T03:22:55.957Z,31.10
2018-03-23T03:23:55.956Z,30.50
2018-03-23T03:24:55.988Z,32.20
2018-03-23T03:25:55.860Z,33.50
2018-03-23T03:26:55.852Z,32.50
2018-03-23T03:27:55.789Z,34.20
2018-03-23T03:28:55.703Z,33.30
2018-03-23T03:29:55.653Z,31.80
2018-03-23T03:30:55.704Z,33.10
2018-03-23T03:31:55.552Z,36.60
2018-03-23T03:32:55.589Z,39.20
2018-03-23T03:33:55.483Z,41.10
2018-03-23T03:34:55.515Z,38.80
2018-03-23T03:35:55.395Z,37.50
2018-03-23T03:36:55.454Z,44.60
2018-03-23T03:37:55.295Z,41.50
2018-03-23T03:38:55.263Z,34.30
2018-03-23T03:39:55.213Z,37.30
2018-03-23T03:40:55.173Z,36.60
2018-03-23T03:41:55.157Z,37.80
2018-03-23T03:42:55.121Z,38.10
2018-03-23T03:43:55.050Z,33.80
2018-03-23T03:44:55.018Z,33.40
2018-03-23T03:45:54.981Z,37.00
2018-03-23T03:46:54.961Z,35.70
2018-03-23T03:47:54.867Z,40.20
2018-03-23T03:48:54.845Z,37.10
2018-03-23T03:49:54.855Z,38.50
2018-03-23T03:50:54.768Z,42.60
2018-03-23T03:51:54.728Z,43.20
2018-03-23T03:52:54.686Z,41.40
2018-03-23T03:53:54.666Z,38.10
2018-03-23T03:54:54.589Z,35.90
2018-03-23T03:55:54.508Z,33.60
2018-03-23T03:56:54.546Z,34.50
2018-03-23T03:57:54.434Z,33.60
2018-03-23T03:58:54.476Z,38.80
2018-03-23T03:59:54.340Z,37.50
2018-03-23T04:00:54.388Z,37.70
2018-03-23T04:01:54.254Z,39.40
2018-03-23T04:02:54.297Z,40.80
2018-03-23T04:03:54.176Z,44.30
2018-03-23T04:04:54.165Z,41.20
2018-03-23T04:05:54.083Z,35.90
2018-03-23T04:06:54.077Z,39.10
2018-03-23T04:07:53.992Z,40.80
2018-03-23T04:08:53.996Z,42.30
2018-03-23T04:09:53.937Z,41.70
2018-03-23T04:10:53.863Z,39.90
2018-03-23T04:11:53.816Z,39.60
2018-03-23T04:12:53.781Z,37.80
2018-03-23T04:13:53.737Z,39.00
2018-03-23T04:14:53.866Z,40.20
2018-03-23T04:15:53.656Z,41.60
2018-03-23T04:16:53.649Z,39.30
2018-03-23T04:17:53.566Z,39.90
2018-03-23T04:18:53.611Z,40.60
2018-03-23T04:19:53.520Z,40.60
2018-03-23T04:20:53.465Z,40.00
2018-03-23T04:21:53.415Z,35.00
2018-03-23T04:22:53.356Z,39.40
2018-03-23T04:23:53.333Z,41.90
2018-03-23T04:24:53.464Z,38.10
2018-03-23T04:25:53.284Z,38.60
2018-03-23T04:26:53.186Z,33.30
2018-03-23T04:27:53.144Z,36.00
2018-03-23T04:28:53.101Z,44.50
2018-03-23T04:29:53.176Z,42.00
2018-03-23T04:30:52.995Z,44.30
2018-03-23T04:31:52.955Z,44.20
2018-03-23T04:32:52.972Z,36.90
2018-03-23T04:33:52.904Z,39.20
2018-03-23T04:34:52.842Z,41.60
2018-03-23T04:35:52.893Z,37.10
2018-03-23T04:36:52.750Z,37.00
2018-03-23T04:37:52.707Z,36.60
2018-03-23T04:38:52.643Z,35.70
2018-03-23T04:39:52.603Z,39.90
2018-03-23T04:40:52.552Z,42.20
2018-03-23T04:41:52.528Z,39.90
2018-03-23T04:42:54.077Z,44.90
2018-03-23T04:43:52.558Z,44.90
2018-03-23T04:44:52.491Z,45.80
2018-03-23T04:45:52.392Z,46.80
2018-03-23T04:46:52.305Z,57.20
2018-03-23T04:47:52.261Z,52.50
2018-03-23T04:48:52.256Z,49.80
2018-03-23T04:49:52.195Z,45.20
2018-03-23T04:50:52.215Z,38.80
2018-03-23T04:51:52.235Z,34.70
2018-03-23T04:52:52.025Z,40.10
2018-03-23T04:53:52.040Z,45.10
2018-03-23T04:54:51.952Z,38.60
2018-03-23T04:55:51.952Z,36.20
2018-03-23T04:56:51.857Z,43.10
2018-03-23T04:57:52.483Z,44.20
2018-03-23T04:58:51.832Z,46.00
2018-03-23T04:59:51.788Z,43.90
2018-03-23T05:00:51.778Z,42.00
2018-03-23T05:01:51.660Z,44.90
2018-03-23T05:02:51.613Z,48.10
2018-03-23T05:03:51.608Z,57.00
2018-03-23T05:04:51.539Z,49.00
2018-03-23T05:05:51.555Z,52.30
2018-03-23T05:06:51.487Z,45.50
2018-03-23T05:07:51.496Z,33.60
2018-03-23T05:08:51.333Z,40.50
2018-03-23T05:09:51.470Z,50.20
2018-03-23T05:10:51.291Z,41.50
2018-03-23T05:11:51.359Z,35.30
2018-03-23T05:12:51.171Z,42.00
2018-03-23T05:13:51.203Z,45.90
2018-03-23T05:14:51.074Z,44.00
2018-03-23T05:15:51.059Z,53.10
2018-03-23T05:16:50.997Z,52.30
2018-03-23T05:17:50.950Z,54.40
2018-03-23T05:18:50.907Z,53.20
2018-03-23T05:19:50.941Z,53.80
2018-03-23T05:20:50.824Z,41.90
2018-03-23T05:21:50.835Z,43.50
2018-03-23T05:22:50.917Z,50.40
2018-03-23T05:23:50.708Z,56.00
2018-03-23T05:24:51.475Z,55.40
2018-03-23T05:25:50.694Z,54.90
2018-03-23T05:26:50.615Z,69.80
2018-03-23T05:27:50.569Z,63.00
2018-03-23T05:28:50.475Z,48.40
2018-03-23T05:29:50.471Z,44.00
2018-03-23T05:30:50.532Z,41.50
2018-03-23T05:31:50.381Z,42.70
2018-03-23T05:32:50.341Z,34.40
2018-03-23T05:33:50.287Z,39.40
2018-03-23T05:34:50.205Z,44.30
2018-03-23T05:35:50.197Z,45.30
2018-03-23T05:36:50.265Z,40.40
2018-03-23T05:37:50.095Z,39.00
2018-03-23T05:38:50.112Z,37.30
2018-03-23T05:39:50.005Z,32.50
2018-03-23T05:40:50.471Z,40.60
2018-03-23T05:41:49.914Z,34.40
2018-03-23T05:42:49.930Z,36.10
2018-03-23T05:43:49.887Z,35.90
2018-03-23T05:44:49.896Z,41.40
2018-03-23T05:45:49.772Z,42.70
2018-03-23T05:46:49.782Z,40.10
2018-03-23T05:47:49.748Z,37.40
2018-03-23T05:48:49.768Z,32.40
2018-03-23T05:49:49.567Z,35.20
2018-03-23T05:50:49.659Z,32.90
2018-03-23T05:51:49.520Z,34.10
2018-03-23T05:52:49.461Z,38.80
2018-03-23T05:53:49.390Z,34.10
2018-03-23T05:54:49.434Z,37.30
2018-03-23T05:55:49.442Z,41.50
2018-03-23T05:56:49.474Z,44.10
2018-03-23T05:57:49.283Z,38.80
2018-03-23T05:58:49.303Z,27.90
2018-03-23T05:59:49.253Z,27.50
2018-03-23T06:00:49.120Z,24.70
2018-03-23T06:01:49.187Z,32.90
2018-03-23T06:02:49.006Z,29.10
2018-03-23T06:03:49.002Z,28.80
2018-03-23T06:04:48.968Z,28.80
2018-03-23T06:05:48.952Z,30.90
2018-03-23T06:06:48.848Z,30.90
2018-03-23T06:07:48.881Z,31.30
2018-03-23T06:08:48.882Z,29.80
2018-03-23T06:09:48.743Z,32.80
2018-03-23T06:10:48.821Z,34.70
2018-03-23T06:11:48.722Z,32.10
2018-03-23T06:12:48.776Z,35.40
2018-03-23T06:13:48.532Z,34.30
2018-03-23T06:14:48.628Z,29.40
2018-03-23T06:15:48.577Z,29.60
2018-03-23T06:16:48.406Z,23.70
2018-03-23T06:17:48.477Z,22.10
2018-03-23T06:18:48.321Z,25.80
2018-03-23T06:19:48.305Z,38.70
2018-03-23T06:20:48.232Z,35.40
2018-03-23T06:21:48.985Z,43.00
2018-03-23T06:22:48.223Z,49.00
2018-03-23T06:23:48.129Z,28.30
2018-03-23T06:24:48.180Z,25.50
2018-03-23T06:25:48.038Z,24.40
2018-03-23T06:26:47.976Z,31.00
2018-03-23T06:27:47.933Z,35.10
2018-03-23T06:28:47.885Z,34.90
2018-03-23T06:29:47.866Z,33.20
2018-03-23T06:30:47.906Z,34.10
2018-03-23T06:31:47.787Z,32.90
2018-03-23T06:32:47.740Z,33.60
2018-03-23T06:33:47.706Z,35.40
2018-03-23T06:34:47.661Z,30.30
2018-03-23T06:35:47.694Z,31.60
2018-03-23T06:36:47.584Z,24.90
2018-03-23T06:37:47.535Z,22.20
2018-03-23T06:38:47.980Z,27.30
2018-03-23T06:39:47.761Z,31.00
2018-03-23T06:40:47.967Z,31.80
2018-03-23T06:41:47.712Z,30.70
2018-03-23T06:42:47.856Z,27.30
2018-03-23T06:43:47.640Z,22.80
2018-03-23T06:44:47.355Z,22.70
2018-03-23T06:45:47.538Z,29.40
2018-03-23T06:46:50.387Z,28.70
2018-03-23T06:47:47.984Z,26.20
2018-03-23T06:48:47.263Z,30.80
2018-03-23T06:49:47.251Z,30.60
2018-03-23T06:50:47.210Z,20.70
2018-03-23T06:51:47.628Z,20.60
2018-03-23T06:52:47.153Z,24.10
2018-03-23T06:53:47.267Z,23.50
2018-03-23T06:54:46.964Z,27.20
2018-03-23T06:55:47.026Z,26.80
2018-03-23T06:56:46.887Z,29.90
2018-03-23T06:57:46.795Z,27.50
2018-03-23T06:58:46.789Z,26.50
2018-03-23T06:59:46.824Z,25.20
2018-03-23T07:00:46.748Z,26.00
2018-03-23T07:01:46.810Z,25.80
2018-03-23T07:02:46.521Z,27.30
2018-03-23T07:03:46.711Z,25.50
2018-03-23T07:04:46.558Z,31.40
2018-03-23T07:05:46.450Z,31.20
2018-03-23T07:06:46.552Z,31.00
2018-03-23T07:07:46.402Z,26.60
2018-03-23T07:08:46.360Z,20.50
2018-03-23T07:09:46.249Z,26.80
2018-03-23T07:10:46.300Z,34.40
2018-03-23T07:11:46.393Z,37.70
2018-03-23T07:12:46.248Z,22.80
2018-03-23T07:13:46.163Z,24.40
2018-03-23T07:14:51.559Z,28.90
2018-03-23T07:15:45.985Z,33.30
2018-03-23T07:16:46.100Z,32.50
2018-03-23T07:17:45.925Z,28.80
2018-03-23T07:18:45.943Z,24.50
2018-03-23T07:19:45.991Z,26.10
2018-03-23T07:20:45.887Z,24.50
2018-03-23T07:21:45.930Z,21.30
2018-03-23T07:22:45.636Z,21.70
2018-03-23T07:23:45.784Z,24.60
2018-03-23T07:24:45.612Z,23.70
2018-03-23T07:25:45.519Z,24.20
2018-03-23T07:26:45.583Z,28.10
2018-03-23T07:27:45.475Z,28.30
2018-03-23T07:28:51.306Z,23.40
2018-03-23T07:29:45.985Z,25.40
2018-03-23T07:30:45.505Z,23.20
2018-03-23T07:31:45.435Z,25.10
2018-03-23T07:32:45.281Z,23.20
2018-03-23T07:33:45.355Z,26.50
2018-03-23T07:34:45.179Z,28.00
2018-03-23T07:35:45.210Z,23.00
2018-03-23T07:36:45.770Z,22.00
2018-03-23T07:37:45.065Z,21.00
2018-03-23T07:38:44.951Z,25.40
2018-03-23T07:39:45.129Z,26.20
2018-03-23T07:40:45.093Z,29.50
2018-03-23T07:41:44.894Z,29.00
2018-03-23T07:42:45.483Z,20.90
2018-03-23T07:43:44.850Z,22.20
2018-03-23T07:44:44.827Z,26.20
2018-03-23T07:45:44.693Z,23.50
2018-03-23T07:46:44.719Z,24.70
2018-03-23T07:47:44.587Z,21.00
2018-03-23T07:48:46.125Z,21.70
2018-03-23T07:49:44.510Z,22.10
2018-03-23T07:50:44.994Z,23.30
2018-03-23T07:51:44.450Z,22.50
2018-03-23T07:52:44.494Z,21.60
2018-03-23T07:53:44.433Z,25.70
2018-03-23T07:54:44.299Z,24.70
2018-03-23T07:55:44.296Z,27.10
2018-03-23T07:56:44.379Z,22.30
2018-03-23T07:57:44.308Z,23.20
2018-03-23T07:58:44.220Z,25.30
2018-03-23T07:59:44.121Z,24.90
2018-03-23T08:00:44.099Z,25.40
2018-03-23T08:01:44.039Z,22.00
2018-03-23T08:02:44.068Z,22.60
2018-03-23T08:03:43.940Z,25.00
2018-03-23T08:04:43.973Z,21.40
2018-03-23T08:05:43.884Z,25.10
2018-03-23T08:06:43.837Z,23.80
2018-03-23T08:07:43.828Z,23.00
2018-03-23T08:08:43.817Z,22.60
2018-03-23T08:09:43.742Z,21.90
2018-03-23T08:10:43.656Z,22.40
2018-03-23T08:11:43.768Z,21.10
2018-03-23T08:12:46.160Z,21.30
2018-03-23T08:13:43.567Z,25.20
2018-03-23T08:14:43.548Z,23.50
2018-03-23T08:15:43.507Z,24.20
2018-03-23T08:16:43.556Z,24.50
2018-03-23T08:17:43.473Z,22.20
2018-03-23T08:18:43.395Z,24.60
2018-03-23T08:19:43.316Z,24.10
2018-03-23T08:20:43.320Z,23.30
2018-03-23T08:21:43.320Z,25.70
2018-03-23T08:22:43.249Z,24.50
2018-03-23T08:23:43.219Z,23.70
2018-03-23T08:24:43.166Z,20.20
2018-03-23T08:25:43.178Z,21.30
2018-03-23T08:26:43.081Z,23.20
2018-03-23T08:27:43.058Z,24.90
2018-03-23T08:28:42.949Z,25.50
2018-03-23T08:29:43.038Z,23.80
2018-03-23T08:30:42.991Z,23.90
2018-03-23T08:31:42.874Z,24.40
2018-03-23T08:32:42.839Z,21.70
2018-03-23T08:33:42.883Z,24.00
2018-03-23T08:34:42.774Z,20.70
2018-03-23T08:35:42.800Z,21.60
2018-03-23T08:36:42.642Z,24.10
2018-03-23T08:37:42.636Z,25.40
2018-03-23T08:38:42.651Z,22.10
2018-03-23T08:39:42.589Z,23.90
2018-03-23T08:40:42.555Z,23.20
2018-03-23T08:41:42.666Z,20.90
2018-03-23T08:42:42.418Z,22.60
2018-03-23T08:43:42.410Z,23.10
2018-03-23T08:44:42.418Z,23.60
2018-03-23T08:45:42.343Z,23.10
2018-03-23T08:46:42.344Z,22.40
2018-03-23T08:47:42.261Z,23.30
2018-03-23T08:48:42.254Z,23.80
2018-03-23T08:49:42.233Z,22.60
2018-03-23T08:50:42.097Z,23.20
2018-03-23T08:51:42.086Z,22.20
2018-03-23T08:52:42.139Z,22.60
2018-03-23T08:53:41.973Z,23.40
2018-03-23T08:54:42.001Z,23.40
2018-03-23T08:55:41.966Z,21.60
2018-03-23T08:56:42.509Z,21.40
2018-03-23T08:57:41.892Z,21.30
2018-03-23T08:58:41.807Z,21.90
2018-03-23T08:59:41.773Z,22.60
2018-03-23T09:00:41.740Z,21.30
2018-03-23T09:01:41.743Z,22.10
2018-03-23T09:02:41.673Z,21.90
2018-03-23T09:03:41.710Z,22.00
2018-03-23T09:04:41.582Z,21.40
2018-03-23T09:05:41.609Z,20.10
2018-03-23T09:06:41.519Z,19.70
2018-03-23T09:07:41.480Z,20.90
2018-03-23T09:08:41.431Z,21.10
2018-03-23T09:09:41.452Z,20.20
2018-03-23T09:10:41.396Z,20.30
2018-03-23T09:11:41.404Z,21.00
2018-03-23T09:12:41.278Z,20.80
2018-03-23T09:13:41.264Z,21.00
2018-03-23T09:14:41.201Z,20.50
2018-03-23T09:15:41.203Z,20.70
2018-03-23T09:16:41.165Z,20.40
2018-03-23T09:17:41.212Z,20.30
2018-03-23T09:18:41.066Z,20.80
2018-03-23T09:19:41.032Z,19.60
2018-03-23T09:20:41.022Z,20.30
2018-03-23T09:21:40.996Z,20.70
2018-03-23T09:22:40.944Z,19.90
2018-03-23T09:23:40.958Z,19.40
2018-03-23T09:24:40.858Z,20.10
2018-03-23T09:25:40.978Z,19.20
2018-03-23T09:26:40.760Z,19.00
2018-03-23T09:27:40.748Z,20.30
2018-03-23T09:28:40.730Z,18.60
2018-03-23T09:29:40.672Z,19.80
2018-03-23T09:30:40.630Z,20.70
2018-03-23T09:31:40.651Z,19.00
2018-03-23T09:32:40.568Z,19.80
2018-03-23T09:33:40.526Z,19.30
2018-03-23T09:34:40.495Z,20.60
2018-03-23T09:35:40.447Z,19.70
2018-03-23T09:36:40.491Z,20.60
2018-03-23T09:37:40.362Z,20.10
2018-03-23T09:38:40.352Z,20.50
2018-03-23T09:39:40.310Z,19.70
2018-03-23T09:40:40.286Z,18.50
2018-03-23T09:41:40.219Z,18.70
2018-03-23T09:42:40.203Z,18.60
2018-03-23T09:43:40.175Z,17.70
2018-03-23T09:44:40.126Z,19.40
2018-03-23T09:45:40.075Z,19.50
2018-03-23T09:46:40.042Z,19.60
2018-03-23T09:47:40.014Z,18.20
2018-03-23T09:48:39.998Z,19.30
2018-03-23T09:49:39.958Z,19.20
2018-03-23T09:50:39.970Z,18.80
2018-03-23T09:51:39.967Z,17.40
2018-03-23T09:52:39.860Z,17.50
2018-03-23T09:53:39.797Z,17.90
2018-03-23T09:54:39.758Z,18.60
2018-03-23T09:55:39.716Z,18.90
2018-03-23T09:56:39.682Z,18.30
2018-03-23T09:57:39.641Z,17.90
2018-03-23T09:58:39.607Z,17.50
2018-03-23T09:59:39.604Z,17.70
2018-03-23T10:00:39.687Z,17.90
2018-03-23T10:01:39.521Z,18.80
2018-03-23T10:02:39.471Z,17.80
2018-03-23T10:03:39.455Z,17.40
2018-03-23T10:04:39.453Z,18.90
2018-03-23T10:05:39.339Z,17.10
2018-03-23T10:06:39.355Z,18.20
2018-03-23T10:07:39.310Z,17.60
2018-03-23T10:08:39.261Z,17.80
2018-03-23T10:09:39.290Z,17.60
2018-03-23T10:10:39.186Z,17.60
2018-03-23T10:11:39.163Z,16.80
2018-03-23T10:12:39.151Z,17.00
2018-03-23T10:13:39.046Z,16.80
2018-03-23T10:14:39.026Z,18.20
2018-03-23T10:15:38.993Z,17.50
2018-03-23T10:16:38.951Z,18.20
2018-03-23T10:17:38.966Z,17.00
2018-03-23T10:18:38.954Z,17.30
2018-03-23T10:19:38.962Z,17.90
2018-03-23T10:20:38.788Z,16.90
2018-03-23T10:21:38.799Z,17.10
2018-03-23T10:22:38.736Z,17.60
2018-03-23T10:23:38.709Z,17.70
2018-03-23T10:24:38.653Z,17.80
2018-03-23T10:25:38.659Z,17.50
2018-03-23T10:26:38.572Z,15.80
2018-03-23T10:27:38.541Z,17.40
2018-03-23T10:28:38.531Z,18.50
2018-03-23T10:29:38.483Z,17.50
2018-03-23T10:30:38.466Z,17.70
2018-03-23T10:31:38.452Z,17.00
2018-03-23T10:32:38.358Z,16.20
2018-03-23T10:33:38.332Z,17.40
2018-03-23T10:34:38.316Z,17.40
2018-03-23T10:35:38.252Z,18.00
2018-03-23T10:36:38.287Z,18.20
2018-03-23T10:37:38.321Z,18.10
2018-03-23T10:38:38.125Z,15.80
2018-03-23T10:39:38.103Z,18.40
2018-03-23T10:40:38.063Z,17.90
2018-03-23T10:41:38.031Z,18.40
2018-03-23T10:42:38.005Z,17.50
2018-03-23T10:43:37.938Z,18.00
2018-03-23T10:44:38.052Z,17.60
2018-03-23T10:45:37.904Z,18.70
2018-03-23T10:46:37.825Z,18.30
2018-03-23T10:47:37.801Z,17.50
2018-03-23T10:48:37.767Z,18.30
2018-03-23T10:49:37.768Z,18.40
2018-03-23T10:50:37.684Z,18.30
2018-03-23T10:51:37.645Z,19.20
2018-03-23T10:52:37.624Z,18.60
2018-03-23T10:53:37.675Z,18.40
2018-03-23T10:54:37.576Z,17.50
2018-03-23T10:55:37.734Z,18.60
2018-03-23T10:56:37.654Z,17.50
2018-03-23T10:57:37.420Z,18.40
2018-03-23T10:58:37.490Z,19.20
2018-03-23T10:59:37.352Z,19.10
2018-03-23T11:00:37.310Z,18.40
2018-03-23T11:01:37.310Z,18.70
2018-03-23T11:02:37.274Z,17.90
2018-03-23T11:03:37.175Z,18.90
2018-03-23T11:04:37.166Z,19.60
2018-03-23T11:05:37.199Z,18.80
2018-03-23T11:06:37.069Z,20.00
2018-03-23T11:07:37.163Z,19.00
2018-03-23T11:08:37.012Z,18.10
2018-03-23T11:09:37.025Z,18.10
2018-03-23T11:10:37.118Z,19.20
2018-03-23T11:11:36.956Z,18.70
2018-03-23T11:12:36.922Z,17.20
2018-03-23T11:13:36.822Z,19.30
2018-03-23T11:14:36.802Z,19.00
2018-03-23T11:15:36.748Z,20.10
2018-03-23T11:16:36.683Z,19.70
2018-03-23T11:17:36.709Z,18.00
2018-03-23T11:18:36.630Z,18.50
2018-03-23T11:19:36.571Z,18.20
2018-03-23T11:20:36.568Z,19.00
2018-03-23T11:21:36.697Z,20.20
2018-03-23T11:22:36.487Z,18.10
2018-03-23T11:23:36.443Z,18.30
2018-03-23T11:24:36.427Z,18.00
2018-03-23T11:25:36.379Z,17.80
2018-03-23T11:26:36.375Z,16.70
2018-03-23T11:27:36.301Z,17.70
2018-03-23T11:28:36.234Z,18.50
2018-03-23T11:29:36.189Z,18.60
2018-03-23T11:30:36.176Z,16.00
2018-03-23T11:31:36.124Z,16.10
2018-03-23T11:32:36.128Z,17.40
2018-03-23T11:33:36.169Z,16.00
2018-03-23T11:34:36.050Z,15.60
2018-03-23T11:35:35.958Z,15.20
2018-03-23T11:36:35.925Z,14.50
2018-03-23T11:37:35.931Z,14.90
2018-03-23T11:38:35.873Z,14.20
2018-03-23T11:39:35.814Z,15.10
2018-03-23T11:40:35.822Z,14.80
2018-03-23T11:41:35.838Z,13.70
2018-03-23T11:42:35.876Z,13.30
2018-03-23T11:43:35.673Z,13.00
2018-03-23T11:44:35.638Z,13.20
2018-03-23T11:45:35.627Z,13.00
2018-03-23T11:46:35.572Z,13.10
2018-03-23T11:47:35.561Z,11.70
2018-03-23T11:48:35.480Z,11.50
2018-03-23T11:49:35.468Z,11.30
2018-03-23T11:50:35.420Z,10.50
2018-03-23T11:51:35.388Z,10.30
2018-03-23T11:52:35.359Z,10.90
2018-03-23T11:53:35.345Z,11.20
2018-03-23T11:54:35.266Z,11.20
2018-03-23T11:55:35.231Z,10.50
2018-03-23T11:56:35.222Z,9.70
2018-03-23T11:57:35.170Z,10.20
2018-03-23T11:58:35.132Z,9.50
2018-03-23T11:59:35.143Z,9.80
2018-03-23T12:00:35.056Z,10.00
2018-03-23T12:01:35.024Z,9.60
2018-03-23T12:02:34.999Z,10.00
2018-03-23T12:03:34.962Z,9.20
2018-03-23T12:04:34.937Z,9.60
2018-03-23T12:05:34.933Z,10.50
2018-03-23T12:06:34.859Z,10.10
2018-03-23T12:07:34.854Z,10.10
2018-03-23T12:08:34.798Z,9.60
2018-03-23T12:09:34.750Z,10.20
2018-03-23T12:10:34.749Z,9.40
2018-03-23T12:11:34.697Z,9.20
2018-03-23T12:12:37.663Z,9.70
2018-03-23T12:13:34.641Z,10.00
2018-03-23T12:14:34.613Z,9.40
2018-03-23T12:15:34.616Z,9.60
2018-03-23T12:16:34.547Z,9.60
2018-03-23T12:17:34.517Z,8.90
2018-03-23T12:18:34.484Z,9.30
2018-03-23T12:19:34.466Z,9.00
2018-03-23T12:20:34.430Z,9.30
2018-03-23T12:21:34.383Z,9.00
2018-03-23T12:22:34.351Z,8.90
2018-03-23T12:23:34.307Z,8.70
2018-03-23T12:24:34.309Z,8.90
2018-03-23T12:25:34.259Z,9.00
2018-03-23T12:26:34.221Z,9.30
2018-03-23T12:27:34.181Z,9.30
2018-03-23T12:28:34.167Z,9.40
2018-03-23T12:29:34.123Z,8.90
2018-03-23T12:30:34.115Z,9.20
2018-03-23T12:31:34.167Z,9.20
2018-03-23T12:32:34.098Z,8.90
2018-03-23T12:33:34.105Z,9.10
2018-03-23T12:34:34.017Z,9.50
2018-03-23T12:35:33.955Z,10.20
2018-03-23T12:36:33.917Z,9.80
2018-03-23T12:37:33.876Z,9.40
2018-03-23T12:38:33.865Z,9.40
2018-03-23T12:39:33.821Z,9.40
2018-03-23T12:40:33.779Z,10.00
2018-03-23T12:41:33.747Z,9.90
2018-03-23T12:42:33.751Z,10.00
2018-03-23T12:43:35.658Z,9.50
2018-03-23T12:44:33.670Z,10.70
2018-03-23T12:45:33.667Z,10.50
2018-03-23T12:46:33.604Z,10.10
2018-03-23T12:47:33.568Z,10.30
2018-03-23T12:48:33.527Z,9.20
2018-03-23T12:49:33.524Z,9.80
2018-03-23T12:50:33.494Z,9.90
2018-03-23T12:51:33.437Z,9.70
2018-03-23T12:52:33.453Z,10.10
2018-03-23T12:53:33.514Z,9.90